createdAt,value
2019-05-14T00:03:59.335Z,1.20
2019-05-14T00:09:08.454Z,1.85
2019-05-14T00:14:17.494Z,1.09
2019-05-14T00:19:26.667Z,1.24
2019-05-14T00:24:35.766Z,1.45
2019-05-14T00:29:44.990Z,3.01
2019-05-14T00:34:54.018Z,1.49
2019-05-14T00:40:03.137Z,0.98
2019-05-14T00:45:12.168Z,3.27
2019-05-14T00:50:21.680Z,1.33
2019-05-14T00:55:31.625Z,1.32
2019-05-14T01:00:38.479Z,1.71
2019-05-14T01:05:47.564Z,1.56
2019-05-14T01:10:56.860Z,2.02
2019-05-14T01:16:05.914Z,1.37
2019-05-14T01:21:15.053Z,1.33
2019-05-14T01:26:24.085Z,1.39
2019-05-14T01:31:33.166Z,2.20
2019-05-14T01:36:42.208Z,1.96
2019-05-14T01:41:51.799Z,1.59
2019-05-14T01:47:01.868Z,1.92
2019-05-14T01:52:08.547Z,1.77
2019-05-14T01:57:17.595Z,1.40
2019-05-14T02:02:27.126Z,1.73
2019-05-14T02:07:36.179Z,1.52
2019-05-14T02:12:45.311Z,1.72
2019-05-14T02:17:54.357Z,1.10
2019-05-14T02:23:03.458Z,2.22
2019-05-14T02:28:12.525Z,1.89
2019-05-14T02:33:21.708Z,1.69
2019-05-14T02:38:30.745Z,2.08
2019-05-14T02:43:40.851Z,1.54
2019-05-14T02:48:49.118Z,2.09
2019-05-14T02:53:59.174Z,1.26
2019-05-14T02:59:06.343Z,2.40
2019-05-14T03:04:14.227Z,1.92
2019-05-14T03:09:23.284Z,1.26
2019-05-14T03:14:32.463Z,1.16
2019-05-14T03:19:41.502Z,2.29
2019-05-14T03:24:50.654Z,2.73
2019-05-14T03:29:59.702Z,1.12
2019-05-14T03:35:13.635Z,1.45
2019-05-14T03:40:19.480Z,2.29
2019-05-14T03:45:26.083Z,2.18
2019-05-14T03:50:38.735Z,2.42
2019-05-14T03:55:44.350Z,2.27
2019-05-14T04:00:53.386Z,1.85
2019-05-14T04:06:02.520Z,2.79
2019-05-14T04:11:12.621Z,1.63
2019-05-14T04:16:11.728Z,1.45
2019-05-14T04:21:20.754Z,2.47
2019-05-14T04:26:30.413Z,1.24
2019-05-14T04:31:39.136Z,1.37
2019-05-14T04:36:49.987Z,1.84
2019-05-14T04:41:55.780Z,1.45
2019-05-14T04:47:22.525Z,1.88
2019-05-14T04:52:13.461Z,1.77
2019-05-14T04:57:25.489Z,2.05
2019-05-14T05:02:31.165Z,2.77
2019-05-14T05:07:40.844Z,1.79
2019-05-14T05:12:49.899Z,2.68
2019-05-14T05:17:59.150Z,2.66
2019-05-14T05:23:08.488Z,2.07
2019-05-14T05:28:18.900Z,2.11
2019-05-14T05:33:25.496Z,3.74
2019-05-14T05:38:34.637Z,1.81
2019-05-14T05:43:43.682Z,1.12
2019-05-14T05:48:52.828Z,1.63
2019-05-14T05:54:01.852Z,2.81
2019-05-14T05:59:10.934Z,1.67
2019-05-14T06:04:19.958Z,2.13
2019-05-14T06:09:29.046Z,2.06
2019-05-14T06:14:38.372Z,3.72
2019-05-14T06:19:48.579Z,2.29
2019-05-14T06:24:58.426Z,2.33
2019-05-14T06:30:04.661Z,2.98
2019-05-14T06:35:13.718Z,3.00
2019-05-14T06:40:22.830Z,3.01
2019-05-14T06:45:31.867Z,2.10
2019-05-14T06:50:40.986Z,2.05
2019-05-14T06:55:50.143Z,2.82
2019-05-14T07:00:59.421Z,2.72
2019-05-14T07:06:08.977Z,3.16
2019-05-14T07:11:19.130Z,2.53
2019-05-14T07:16:25.663Z,3.25
2019-05-14T07:21:34.748Z,3.11
2019-05-14T07:26:43.785Z,2.84
2019-05-14T07:31:53.280Z,4.48
2019-05-14T07:37:02.335Z,2.91
2019-05-14T07:42:11.509Z,2.89
2019-05-14T07:47:20.556Z,3.58
2019-05-14T07:52:29.676Z,3.06
2019-05-14T07:57:39.598Z,4.91
2019-05-14T08:02:49.219Z,4.35
2019-05-14T08:07:58.607Z,4.25
2019-05-14T08:13:08.340Z,3.21
2019-05-14T08:18:14.807Z,3.55
2019-05-14T08:23:24.123Z,3.66
2019-05-14T08:28:33.180Z,3.39
2019-05-14T08:33:42.271Z,3.57
2019-05-14T08:38:51.336Z,4.18
2019-05-14T08:44:00.498Z,3.69
2019-05-14T08:49:09.556Z,4.24
2019-05-14T08:54:18.897Z,2.86
2019-05-14T08:59:28.624Z,4.72
2019-05-14T09:04:42.972Z,4.23
2019-05-14T09:09:38.211Z,4.11
2019-05-14T09:14:48.285Z,3.18
2019-05-14T09:20:00.928Z,3.63
2019-05-14T09:25:04.466Z,3.26
2019-05-14T09:30:13.540Z,6.37
2019-05-14T09:35:22.714Z,4.40
2019-05-14T09:40:31.779Z,3.94
2019-05-14T09:45:40.893Z,3.98
2019-05-14T09:50:49.927Z,3.41
2019-05-14T09:55:59.406Z,4.83
2019-05-14T10:01:08.756Z,3.47
2019-05-14T10:06:20.309Z,4.14
2019-05-14T10:11:28.642Z,3.79
2019-05-14T10:16:34.947Z,4.18
2019-05-14T10:21:44.371Z,5.23
2019-05-14T10:26:53.466Z,4.96
2019-05-14T10:32:02.529Z,4.01
2019-05-14T10:37:11.630Z,4.24
2019-05-14T10:42:20.698Z,4.56
2019-05-14T10:47:29.889Z,5.36
2019-05-14T10:52:39.489Z,4.50
2019-05-14T10:57:53.355Z,4.86
2019-05-14T11:02:56.262Z,4.41
2019-05-14T11:08:05.433Z,4.02
2019-05-14T11:13:14.483Z,2.83
2019-05-14T11:18:24.162Z,4.07
2019-05-14T11:23:33.211Z,2.62
2019-05-14T11:28:42.454Z,4.04
2019-05-14T11:33:51.502Z,3.13
2019-05-14T11:39:03.707Z,3.57
2019-05-14T11:44:09.376Z,3.59
2019-05-14T11:49:19.376Z,5.69
2019-05-14T11:54:29.158Z,2.31
2019-05-14T11:59:39.121Z,3.93
2019-05-14T12:04:36.307Z,3.64
2019-05-14T12:09:46.346Z,3.15
2019-05-14T12:14:45.370Z,3.78
2019-05-14T12:19:54.576Z,3.96
2019-05-14T12:25:03.622Z,3.36
2019-05-14T12:30:12.751Z,2.56
2019-05-14T12:35:21.828Z,4.73
2019-05-14T12:40:30.989Z,4.18
2019-05-14T12:45:40.065Z,2.52
2019-05-14T12:50:49.374Z,2.40
2019-05-14T12:55:58.518Z,4.37
2019-05-14T13:01:08.901Z,4.43
2019-05-14T13:06:19.068Z,4.89
2019-05-14T13:11:25.123Z,2.90
2019-05-14T13:16:34.176Z,2.98
2019-05-14T13:21:43.298Z,4.31
2019-05-14T13:26:52.369Z,3.10
2019-05-14T13:32:01.662Z,2.95
2019-05-14T13:37:10.698Z,3.22
2019-05-14T13:42:19.876Z,4.30
2019-05-14T13:47:28.920Z,3.53
2019-05-14T13:52:40.493Z,3.56
2019-05-14T13:57:48.918Z,3.66
2019-05-14T14:02:47.834Z,3.31
2019-05-14T14:07:58.979Z,3.18
2019-05-14T14:13:07.899Z,3.39
2019-05-14T14:18:14.229Z,3.63
2019-05-14T14:23:27.302Z,4.38
2019-05-14T14:28:32.075Z,3.47
2019-05-14T14:33:41.386Z,2.92
2019-05-14T14:38:50.497Z,4.04
2019-05-14T14:43:59.626Z,3.96
2019-05-14T14:49:10.888Z,3.83
2019-05-14T14:54:17.442Z,2.48
2019-05-14T14:59:30.138Z,2.36
2019-05-14T15:04:35.168Z,3.45
2019-05-14T15:09:44.250Z,2.40
2019-05-14T15:14:54.142Z,2.32
2019-05-14T15:20:03.254Z,4.16
2019-05-14T15:25:12.382Z,2.61
2019-05-14T15:30:21.471Z,4.12
2019-05-14T15:35:30.629Z,3.29
2019-05-14T15:40:40.152Z,3.59
2019-05-14T15:45:48.839Z,3.96
2019-05-14T15:50:59.996Z,3.04
2019-05-14T15:56:08.058Z,3.41
2019-05-14T16:01:15.450Z,2.29
2019-05-14T16:06:24.776Z,3.20
2019-05-14T16:11:33.857Z,3.23
2019-05-14T16:16:42.979Z,3.19
2019-05-14T16:21:52.057Z,3.38
2019-05-14T16:27:01.218Z,3.07
2019-05-14T16:32:10.522Z,3.24
2019-05-14T16:37:19.719Z,2.02
2019-05-14T16:42:29.379Z,4.27
2019-05-14T16:47:39.786Z,3.54
2019-05-14T16:52:46.104Z,2.49
2019-05-14T16:57:58.101Z,3.38
2019-05-14T17:03:04.210Z,3.19
2019-05-14T17:08:13.482Z,4.01
2019-05-14T17:13:22.602Z,2.82
2019-05-14T17:18:31.741Z,3.59
2019-05-14T17:23:40.806Z,6.05
2019-05-14T17:28:49.942Z,6.85
2019-05-14T17:33:59.162Z,6.16
2019-05-14T17:39:08.642Z,2.10
2019-05-14T17:44:16.892Z,2.49
2019-05-14T17:49:28.201Z,2.65
2019-05-14T17:54:34.799Z,2.73
2019-05-14T17:59:43.942Z,2.82
2019-05-14T18:04:56.229Z,3.47
2019-05-14T18:10:01.864Z,3.39
2019-05-14T18:15:10.949Z,2.33
2019-05-14T18:20:20.123Z,2.14
2019-05-14T18:25:29.268Z,1.67
2019-05-14T18:30:38.773Z,2.45
2019-05-14T18:35:47.572Z,2.26
2019-05-14T18:40:58.422Z,4.82
2019-05-14T18:46:04.996Z,2.98
2019-05-14T18:51:14.149Z,3.33
2019-05-14T18:56:24.200Z,2.85
2019-05-14T19:01:31.918Z,2.06
2019-05-14T19:06:40.987Z,2.57
2019-05-14T19:11:50.123Z,1.81
2019-05-14T19:16:59.223Z,2.65
2019-05-14T19:22:08.372Z,1.80
2019-05-14T19:27:17.499Z,2.60
2019-05-14T19:32:28.279Z,1.82
2019-05-14T19:37:35.278Z,1.58
2019-05-14T19:42:44.469Z,2.17
2019-05-14T19:47:54.899Z,2.97
2019-05-14T19:52:53.982Z,1.94
2019-05-14T19:58:03.061Z,2.10
2019-05-14T20:03:12.429Z,2.60
2019-05-14T20:08:21.498Z,2.23
2019-05-14T20:13:30.726Z,2.16
2019-05-14T20:18:39.779Z,2.16
2019-05-14T20:23:49.224Z,1.95
2019-05-14T20:28:59.074Z,3.19
2019-05-14T20:34:08.457Z,2.02
2019-05-14T20:39:17.819Z,2.41
2019-05-14T20:44:24.287Z,3.45
2019-05-14T20:49:33.362Z,1.98
2019-05-14T20:54:42.500Z,2.44
2019-05-14T20:59:51.531Z,2.06
2019-05-14T21:05:04.240Z,2.45
2019-05-14T21:10:09.970Z,2.18
2019-05-14T21:15:19.087Z,2.71
2019-05-14T21:20:28.460Z,4.23
2019-05-14T21:25:38.722Z,15.00
2019-05-14T21:30:45.536Z,23.10
2019-05-14T21:35:54.716Z,58.22
2019-05-14T21:41:03.741Z,74.53
2019-05-14T21:46:12.829Z,81.51
2019-05-14T21:51:21.882Z,78.34
2019-05-14T21:56:30.961Z,83.21
2019-05-14T22:01:40.028Z,70.83
2019-05-14T22:06:49.180Z,76.11
2019-05-14T22:11:58.321Z,82.56
2019-05-14T22:17:08.033Z,82.44
2019-05-14T22:22:16.044Z,78.22
2019-05-14T22:27:25.195Z,84.41
2019-05-14T22:32:34.249Z,82.62
2019-05-14T22:37:43.416Z,78.20
2019-05-14T22:42:52.466Z,69.78
2019-05-14T22:48:01.620Z,64.42
2019-05-14T22:53:10.659Z,65.35
2019-05-14T22:58:25.506Z,60.09
2019-05-14T23:03:28.933Z,55.58
2019-05-14T23:08:39.155Z,56.90
2019-05-14T23:13:45.569Z,49.61
2019-05-14T23:18:54.670Z,52.68
2019-05-14T23:24:03.714Z,51.42
2019-05-14T23:29:12.886Z,51.35
2019-05-14T23:34:22.165Z,50.87
2019-05-14T23:39:32.297Z,54.63
2019-05-14T23:44:31.297Z,50.08
2019-05-14T23:49:40.430Z,51.23
2019-05-14T23:54:49.584Z,47.57
2019-05-14T23:59:58.753Z,47.62
